sensor_id;sensor_type;location;lat;lon;timestamp;temperature;humidity
81138;DHT22;70623;50.886;3.892;2023-11-19T00:02:14;14.10;99.90
81138;DHT22;70623;50.886;3.892;2023-11-19T00:04:41;14.20;99.90
81138;DHT22;70623;50.886;3.892;2023-11-19T00:07:07;14.10;99.90
81138;DHT22;70623;50.886;3.892;2023-11-19T00:09:35;14.10;99.90
81138;DHT22;70623;50.886;3.892;2023-11-19T00:12:06;14.10;99.90
81138;DHT22;70623;50.886;3.892;2023-11-19T00:14:32;14.10;99.90
81138;DHT22;70623;50.886;3.892;2023-11-19T00:16:58;14.10;99.90
81138;DHT22;70623;50.886;3.892;2023-11-19T00:19:24;14.00;99.90
81138;DHT22;70623;50.886;3.892;2023-11-19T00:21:50;14.00;99.90
81138;DHT22;70623;50.886;3.892;2023-11-19T00:24:16;14.10;99.90
81138;DHT22;70623;50.886;3.892;2023-11-19T00:26:43;14.00;99.90
81138;DHT22;70623;50.886;3.892;2023-11-19T00:29:12;13.90;99.90
81138;DHT22;70623;50.886;3.892;2023-11-19T00:31:41;14.00;99.90
81138;DHT22;70623;50.886;3.892;2023-11-19T00:34:07;14.10;99.90
81138;DHT22;70623;50.886;3.892;2023-11-19T00:36:32;14.10;99.90
81138;DHT22;70623;50.886;3.892;2023-11-19T00:38:58;14.00;99.90
81138;DHT22;70623;50.886;3.892;2023-11-19T00:41:24;14.00;99.90
81138;DHT22;70623;50.886;3.892;2023-11-19T00:43:51;13.90;99.90
81138;DHT22;70623;50.886;3.892;2023-11-19T00:46:17;14.00;99.90
81138;DHT22;70623;50.886;3.892;2023-11-19T00:48:43;14.00;99.90
81138;DHT22;70623;50.886;3.892;2023-11-19T00:51:11;14.00;99.90
81138;DHT22;70623;50.886;3.892;2023-11-19T00:53:36;14.10;99.90
81138;DHT22;70623;50.886;3.892;2023-11-19T00:56:02;14.00;99.90
81138;DHT22;70623;50.886;3.892;2023-11-19T00:58:28;14.00;99.90
81138;DHT22;70623;50.886;3.892;2023-11-19T01:00:54;13.90;99.90
81138;DHT22;70623;50.886;3.892;2023-11-19T01:03:22;13.80;99.90
81138;DHT22;70623;50.886;3.892;2023-11-19T01:05:48;13.70;99.90
81138;DHT22;70623;50.886;3.892;2023-11-19T01:08:14;13.70;99.90
81138;DHT22;70623;50.886;3.892;2023-11-19T01:10:41;13.60;99.90
81138;DHT22;70623;50.886;3.892;2023-11-19T01:13:07;13.60;99.90
81138;DHT22;70623;50.886;3.892;2023-11-19T01:15:32;13.60;99.90
81138;DHT22;70623;50.886;3.892;2023-11-19T01:17:58;13.50;99.90
81138;DHT22;70623;50.886;3.892;2023-11-19T01:20:24;13.40;99.90
81138;DHT22;70623;50.886;3.892;2023-11-19T01:22:50;13.50;99.90
81138;DHT22;70623;50.886;3.892;2023-11-19T01:25:16;13.40;99.90
81138;DHT22;70623;50.886;3.892;2023-11-19T01:27:42;13.40;99.90
81138;DHT22;70623;50.886;3.892;2023-11-19T01:30:10;13.50;99.90
81138;DHT22;70623;50.886;3.892;2023-11-19T01:32:39;13.50;99.90
81138;DHT22;70623;50.886;3.892;2023-11-19T01:35:05;13.60;99.90
81138;DHT22;70623;50.886;3.892;2023-11-19T01:37:36;13.60;99.90
81138;DHT22;70623;50.886;3.892;2023-11-19T01:40:02;13.70;99.90
81138;DHT22;70623;50.886;3.892;2023-11-19T01:42:30;13.70;99.90
81138;DHT22;70623;50.886;3.892;2023-11-19T01:45:04;13.60;99.90
81138;DHT22;70623;50.886;3.892;2023-11-19T01:47:32;13.60;99.90
81138;DHT22;70623;50.886;3.892;2023-11-19T01:49:59;13.50;99.90
81138;DHT22;70623;50.886;3.892;2023-11-19T01:52:25;13.50;99.90
81138;DHT22;70623;50.886;3.892;2023-11-19T01:54:53;13.50;99.90
81138;DHT22;70623;50.886;3.892;2023-11-19T01:57:21;13.50;99.90
81138;DHT22;70623;50.886;3.892;2023-11-19T01:59:49;13.60;99.90
81138;DHT22;70623;50.886;3.892;2023-11-19T02:02:16;13.60;99.90
81138;DHT22;70623;50.886;3.892;2023-11-19T02:04:49;13.60;99.90
81138;DHT22;70623;50.886;3.892;2023-11-19T02:07:16;13.60;99.90
81138;DHT22;70623;50.886;3.892;2023-11-19T02:09:45;13.60;99.90
81138;DHT22;70623;50.886;3.892;2023-11-19T02:12:11;13.60;99.90
81138;DHT22;70623;50.886;3.892;2023-11-19T02:14:37;13.60;99.90
81138;DHT22;70623;50.886;3.892;2023-11-19T02:17:04;13.60;99.90
81138;DHT22;70623;50.886;3.892;2023-11-19T02:19:30;13.50;99.90
81138;DHT22;70623;50.886;3.892;2023-11-19T02:21:55;13.50;99.90
81138;DHT22;70623;50.886;3.892;2023-11-19T02:24:22;13.40;99.90
81138;DHT22;70623;50.886;3.892;2023-11-19T02:26:59;13.40;99.90
81138;DHT22;70623;50.886;3.892;2023-11-19T02:29:27;13.30;99.90
81138;DHT22;70623;50.886;3.892;2023-11-19T02:31:53;13.30;99.90
81138;DHT22;70623;50.886;3.892;2023-11-19T02:34:23;13.30;99.90
81138;DHT22;70623;50.886;3.892;2023-11-19T02:36:48;13.30;99.90
81138;DHT22;70623;50.886;3.892;2023-11-19T02:39:15;13.30;99.90
81138;DHT22;70623;50.886;3.892;2023-11-19T02:41:47;13.20;99.90
81138;DHT22;70623;50.886;3.892;2023-11-19T02:44:12;13.10;99.90
81138;DHT22;70623;50.886;3.892;2023-11-19T02:46:41;13.20;99.90
81138;DHT22;70623;50.886;3.892;2023-11-19T02:49:08;13.20;99.90
81138;DHT22;70623;50.886;3.892;2023-11-19T02:51:33;13.10;99.90
81138;DHT22;70623;50.886;3.892;2023-11-19T02:54:00;13.10;99.90
81138;DHT22;70623;50.886;3.892;2023-11-19T02:56:26;13.10;99.90
81138;DHT22;70623;50.886;3.892;2023-11-19T02:58:52;13.10;99.90
81138;DHT22;70623;50.886;3.892;2023-11-19T03:01:24;13.10;99.90
81138;DHT22;70623;50.886;3.892;2023-11-19T03:03:56;13.10;99.90
81138;DHT22;70623;50.886;3.892;2023-11-19T03:06:23;13.00;99.90
81138;DHT22;70623;50.886;3.892;2023-11-19T03:08:48;13.00;99.90
81138;DHT22;70623;50.886;3.892;2023-11-19T03:11:14;12.90;99.90
81138;DHT22;70623;50.886;3.892;2023-11-19T03:13:40;13.00;99.90
81138;DHT22;70623;50.886;3.892;2023-11-19T03:16:06;12.90;99.90
81138;DHT22;70623;50.886;3.892;2023-11-19T03:18:32;12.90;99.90
81138;DHT22;70623;50.886;3.892;2023-11-19T03:21:00;12.90;99.90
81138;DHT22;70623;50.886;3.892;2023-11-19T03:23:25;12.90;99.90
81138;DHT22;70623;50.886;3.892;2023-11-19T03:25:54;12.90;99.90
81138;DHT22;70623;50.886;3.892;2023-11-19T03:28:20;12.90;99.90
81138;DHT22;70623;50.886;3.892;2023-11-19T03:30:46;12.80;99.90
81138;DHT22;70623;50.886;3.892;2023-11-19T03:33:11;12.80;99.90
81138;DHT22;70623;50.886;3.892;2023-11-19T03:35:37;12.80;99.90
81138;DHT22;70623;50.886;3.892;2023-11-19T03:38:06;12.80;99.90
81138;DHT22;70623;50.886;3.892;2023-11-19T03:40:31;12.80;99.90
81138;DHT22;70623;50.886;3.892;2023-11-19T03:42:57;12.80;99.90
81138;DHT22;70623;50.886;3.892;2023-11-19T03:45:24;12.90;99.90
81138;DHT22;70623;50.886;3.892;2023-11-19T03:47:50;12.80;99.90
81138;DHT22;70623;50.886;3.892;2023-11-19T03:50:16;12.90;99.90
81138;DHT22;70623;50.886;3.892;2023-11-19T03:52:42;12.90;99.90
81138;DHT22;70623;50.886;3.892;2023-11-19T03:55:10;12.90;99.90
81138;DHT22;70623;50.886;3.892;2023-11-19T03:57:38;13.00;99.90
81138;DHT22;70623;50.886;3.892;2023-11-19T04:00:07;13.00;99.90
81138;DHT22;70623;50.886;3.892;2023-11-19T04:02:36;13.00;99.90
81138;DHT22;70623;50.886;3.892;2023-11-19T04:05:02;13.00;99.90
81138;DHT22;70623;50.886;3.892;2023-11-19T04:07:29;13.00;99.90
81138;DHT22;70623;50.886;3.892;2023-11-19T04:09:59;12.90;99.90
81138;DHT22;70623;50.886;3.892;2023-11-19T04:12:25;12.90;99.90
81138;DHT22;70623;50.886;3.892;2023-11-19T04:14:51;12.90;99.90
81138;DHT22;70623;50.886;3.892;2023-11-19T04:17:17;12.80;99.90
81138;DHT22;70623;50.886;3.892;2023-11-19T04:19:42;12.80;99.90
81138;DHT22;70623;50.886;3.892;2023-11-19T04:22:08;12.70;99.90
81138;DHT22;70623;50.886;3.892;2023-11-19T04:24:39;12.70;99.90
81138;DHT22;70623;50.886;3.892;2023-11-19T04:27:06;12.70;99.90
81138;DHT22;70623;50.886;3.892;2023-11-19T04:29:32;12.60;99.90
81138;DHT22;70623;50.886;3.892;2023-11-19T04:31:58;12.60;99.90
81138;DHT22;70623;50.886;3.892;2023-11-19T04:34:24;12.70;99.90
81138;DHT22;70623;50.886;3.892;2023-11-19T04:36:53;12.70;99.90
81138;DHT22;70623;50.886;3.892;2023-11-19T04:39:19;12.70;99.90
81138;DHT22;70623;50.886;3.892;2023-11-19T04:41:48;12.70;99.90
81138;DHT22;70623;50.886;3.892;2023-11-19T04:44:15;12.70;99.90
81138;DHT22;70623;50.886;3.892;2023-11-19T04:46:41;12.70;99.90
81138;DHT22;70623;50.886;3.892;2023-11-19T04:49:09;12.70;99.90
81138;DHT22;70623;50.886;3.892;2023-11-19T04:51:42;12.60;99.90
81138;DHT22;70623;50.886;3.892;2023-11-19T04:54:09;12.60;99.90
81138;DHT22;70623;50.886;3.892;2023-11-19T04:56:36;12.60;99.90
81138;DHT22;70623;50.886;3.892;2023-11-19T04:59:06;12.70;99.90
81138;DHT22;70623;50.886;3.892;2023-11-19T05:01:35;12.60;99.90
81138;DHT22;70623;50.886;3.892;2023-11-19T05:04:01;12.60;99.90
81138;DHT22;70623;50.886;3.892;2023-11-19T05:06:31;12.60;99.90
81138;DHT22;70623;50.886;3.892;2023-11-19T05:08:59;12.60;99.90
81138;DHT22;70623;50.886;3.892;2023-11-19T05:11:35;12.50;99.90
81138;DHT22;70623;50.886;3.892;2023-11-19T05:14:03;12.40;99.90
81138;DHT22;70623;50.886;3.892;2023-11-19T05:16:31;12.40;99.90
81138;DHT22;70623;50.886;3.892;2023-11-19T05:18:57;12.40;99.90
81138;DHT22;70623;50.886;3.892;2023-11-19T05:21:23;12.40;99.90
81138;DHT22;70623;50.886;3.892;2023-11-19T05:23:49;12.30;99.90
81138;DHT22;70623;50.886;3.892;2023-11-19T05:26:21;12.30;99.90
81138;DHT22;70623;50.886;3.892;2023-11-19T05:28:48;12.20;99.90
81138;DHT22;70623;50.886;3.892;2023-11-19T05:31:14;12.20;99.90
81138;DHT22;70623;50.886;3.892;2023-11-19T05:33:39;12.20;99.90
81138;DHT22;70623;50.886;3.892;2023-11-19T05:36:08;12.20;99.90
81138;DHT22;70623;50.886;3.892;2023-11-19T05:38:36;12.10;99.90
81138;DHT22;70623;50.886;3.892;2023-11-19T05:41:05;12.30;99.90
81138;DHT22;70623;50.886;3.892;2023-11-19T05:43:31;12.30;99.90
81138;DHT22;70623;50.886;3.892;2023-11-19T05:45:57;12.20;99.90
81138;DHT22;70623;50.886;3.892;2023-11-19T05:48:24;12.20;99.90
81138;DHT22;70623;50.886;3.892;2023-11-19T05:50:50;12.20;99.90
81138;DHT22;70623;50.886;3.892;2023-11-19T05:53:16;12.20;99.90
81138;DHT22;70623;50.886;3.892;2023-11-19T05:55:41;12.20;99.90
81138;DHT22;70623;50.886;3.892;2023-11-19T05:58:36;12.20;99.90
81138;DHT22;70623;50.886;3.892;2023-11-19T06:01:02;12.10;99.90
81138;DHT22;70623;50.886;3.892;2023-11-19T06:03:33;12.10;99.90
81138;DHT22;70623;50.886;3.892;2023-11-19T06:05:59;12.00;99.90
81138;DHT22;70623;50.886;3.892;2023-11-19T06:08:24;12.10;99.90
81138;DHT22;70623;50.886;3.892;2023-11-19T06:10:54;12.00;99.90
81138;DHT22;70623;50.886;3.892;2023-11-19T06:13:20;11.80;99.90
81138;DHT22;70623;50.886;3.892;2023-11-19T06:15:48;11.80;99.90
81138;DHT22;70623;50.886;3.892;2023-11-19T06:18:13;11.70;99.90
81138;DHT22;70623;50.886;3.892;2023-11-19T06:20:40;11.80;99.90
81138;DHT22;70623;50.886;3.892;2023-11-19T06:23:06;12.00;99.90
81138;DHT22;70623;50.886;3.892;2023-11-19T06:25:32;11.90;99.90
81138;DHT22;70623;50.886;3.892;2023-11-19T06:27:58;11.90;99.90
81138;DHT22;70623;50.886;3.892;2023-11-19T06:30:24;11.90;99.90
81138;DHT22;70623;50.886;3.892;2023-11-19T06:32:51;11.90;99.90
81138;DHT22;70623;50.886;3.892;2023-11-19T06:35:17;11.80;99.90
81138;DHT22;70623;50.886;3.892;2023-11-19T06:37:42;11.70;99.90
81138;DHT22;70623;50.886;3.892;2023-11-19T06:40:09;11.70;99.90
81138;DHT22;70623;50.886;3.892;2023-11-19T06:42:35;11.70;99.90
81138;DHT22;70623;50.886;3.892;2023-11-19T06:45:01;11.80;99.90
81138;DHT22;70623;50.886;3.892;2023-11-19T06:47:28;11.80;99.90
81138;DHT22;70623;50.886;3.892;2023-11-19T06:49:54;11.80;99.90
81138;DHT22;70623;50.886;3.892;2023-11-19T06:52:20;11.80;99.90
81138;DHT22;70623;50.886;3.892;2023-11-19T06:54:48;11.80;99.90
81138;DHT22;70623;50.886;3.892;2023-11-19T06:57:14;11.90;99.90
81138;DHT22;70623;50.886;3.892;2023-11-19T06:59:40;11.90;99.90
81138;DHT22;70623;50.886;3.892;2023-11-19T07:02:06;11.80;99.90
81138;DHT22;70623;50.886;3.892;2023-11-19T07:04:34;11.90;99.90
81138;DHT22;70623;50.886;3.892;2023-11-19T07:07:00;11.90;99.90
81138;DHT22;70623;50.886;3.892;2023-11-19T07:09:27;12.00;99.90
81138;DHT22;70623;50.886;3.892;2023-11-19T07:11:53;12.00;99.90
81138;DHT22;70623;50.886;3.892;2023-11-19T07:14:19;12.00;99.90
81138;DHT22;70623;50.886;3.892;2023-11-19T07:16:45;12.00;99.90
81138;DHT22;70623;50.886;3.892;2023-11-19T07:19:16;12.00;99.90
81138;DHT22;70623;50.886;3.892;2023-11-19T07:21:41;12.00;99.90
81138;DHT22;70623;50.886;3.892;2023-11-19T07:24:10;12.00;99.90
81138;DHT22;70623;50.886;3.892;2023-11-19T07:26:36;12.00;99.90
81138;DHT22;70623;50.886;3.892;2023-11-19T07:29:02;12.00;99.90
81138;DHT22;70623;50.886;3.892;2023-11-19T07:31:28;12.00;99.90
81138;DHT22;70623;50.886;3.892;2023-11-19T07:33:54;12.00;99.90
81138;DHT22;70623;50.886;3.892;2023-11-19T07:36:20;12.10;99.90
81138;DHT22;70623;50.886;3.892;2023-11-19T07:38:46;12.10;99.90
81138;DHT22;70623;50.886;3.892;2023-11-19T07:41:13;12.10;99.90
81138;DHT22;70623;50.886;3.892;2023-11-19T07:43:39;12.10;99.90
81138;DHT22;70623;50.886;3.892;2023-11-19T07:46:14;12.20;99.90
81138;DHT22;70623;50.886;3.892;2023-11-19T07:48:40;12.30;99.90
81138;DHT22;70623;50.886;3.892;2023-11-19T07:51:07;12.30;99.90
81138;DHT22;70623;50.886;3.892;2023-11-19T07:53:33;12.40;99.90
81138;DHT22;70623;50.886;3.892;2023-11-19T07:55:59;12.50;99.90
81138;DHT22;70623;50.886;3.892;2023-11-19T07:58:25;12.50;99.90
81138;DHT22;70623;50.886;3.892;2023-11-19T08:00:51;12.40;99.90
81138;DHT22;70623;50.886;3.892;2023-11-19T08:03:17;12.40;99.90
81138;DHT22;70623;50.886;3.892;2023-11-19T08:05:47;12.50;99.90
81138;DHT22;70623;50.886;3.892;2023-11-19T08:08:12;12.50;99.90
81138;DHT22;70623;50.886;3.892;2023-11-19T08:10:38;12.70;99.90
81138;DHT22;70623;50.886;3.892;2023-11-19T08:13:05;13.00;99.90
81138;DHT22;70623;50.886;3.892;2023-11-19T08:15:34;13.00;99.90
81138;DHT22;70623;50.886;3.892;2023-11-19T08:17:59;12.90;99.90
81138;DHT22;70623;50.886;3.892;2023-11-19T08:20:25;12.90;99.90
81138;DHT22;70623;50.886;3.892;2023-11-19T08:22:50;12.60;99.90
81138;DHT22;70623;50.886;3.892;2023-11-19T08:25:16;12.60;99.90
81138;DHT22;70623;50.886;3.892;2023-11-19T08:27:44;12.50;99.90
81138;DHT22;70623;50.886;3.892;2023-11-19T08:30:11;12.30;99.90
81138;DHT22;70623;50.886;3.892;2023-11-19T08:32:37;12.30;99.90
81138;DHT22;70623;50.886;3.892;2023-11-19T08:35:05;12.20;99.90
81138;DHT22;70623;50.886;3.892;2023-11-19T08:37:31;12.10;99.90
81138;DHT22;70623;50.886;3.892;2023-11-19T08:39:56;12.00;99.90
81138;DHT22;70623;50.886;3.892;2023-11-19T08:42:22;12.00;99.90
81138;DHT22;70623;50.886;3.892;2023-11-19T08:44:51;11.90;99.90
81138;DHT22;70623;50.886;3.892;2023-11-19T08:47:20;12.10;99.90
81138;DHT22;70623;50.886;3.892;2023-11-19T08:49:48;12.10;99.90
81138;DHT22;70623;50.886;3.892;2023-11-19T08:52:14;12.30;99.90
81138;DHT22;70623;50.886;3.892;2023-11-19T08:54:42;12.40;99.90
81138;DHT22;70623;50.886;3.892;2023-11-19T08:57:08;12.70;99.90
81138;DHT22;70623;50.886;3.892;2023-11-19T08:59:34;12.90;99.90
81138;DHT22;70623;50.886;3.892;2023-11-19T09:02:00;13.30;99.90
81138;DHT22;70623;50.886;3.892;2023-11-19T09:04:26;13.70;99.90
81138;DHT22;70623;50.886;3.892;2023-11-19T09:06:51;13.90;99.90
81138;DHT22;70623;50.886;3.892;2023-11-19T09:09:17;13.80;99.90
81138;DHT22;70623;50.886;3.892;2023-11-19T09:11:43;13.60;99.90
81138;DHT22;70623;50.886;3.892;2023-11-19T09:14:08;13.90;99.90
81138;DHT22;70623;50.886;3.892;2023-11-19T09:16:34;14.10;99.90
81138;DHT22;70623;50.886;3.892;2023-11-19T09:19:00;13.90;99.90
81138;DHT22;70623;50.886;3.892;2023-11-19T09:21:29;13.80;99.90
81138;DHT22;70623;50.886;3.892;2023-11-19T09:23:57;14.00;99.90
81138;DHT22;70623;50.886;3.892;2023-11-19T09:26:26;14.10;99.90
81138;DHT22;70623;50.886;3.892;2023-11-19T09:28:51;13.70;99.90
81138;DHT22;70623;50.886;3.892;2023-11-19T09:31:17;13.60;99.90
81138;DHT22;70623;50.886;3.892;2023-11-19T09:33:44;13.80;99.90
81138;DHT22;70623;50.886;3.892;2023-11-19T09:36:12;14.40;99.90
81138;DHT22;70623;50.886;3.892;2023-11-19T09:38:40;14.40;99.90
81138;DHT22;70623;50.886;3.892;2023-11-19T09:41:06;14.60;99.90
81138;DHT22;70623;50.886;3.892;2023-11-19T09:43:35;14.80;99.90
81138;DHT22;70623;50.886;3.892;2023-11-19T09:46:05;14.80;99.90
81138;DHT22;70623;50.886;3.892;2023-11-19T09:48:38;15.40;99.90
81138;DHT22;70623;50.886;3.892;2023-11-19T09:51:08;15.80;99.90
81138;DHT22;70623;50.886;3.892;2023-11-19T09:53:37;15.80;99.90
81138;DHT22;70623;50.886;3.892;2023-11-19T09:56:06;15.90;99.90
81138;DHT22;70623;50.886;3.892;2023-11-19T09:58:33;15.00;99.90
81138;DHT22;70623;50.886;3.892;2023-11-19T10:01:00;14.90;99.90
81138;DHT22;70623;50.886;3.892;2023-11-19T10:03:33;15.20;99.90
81138;DHT22;70623;50.886;3.892;2023-11-19T10:06:09;15.60;99.90
81138;DHT22;70623;50.886;3.892;2023-11-19T10:08:39;15.60;99.90
81138;DHT22;70623;50.886;3.892;2023-11-19T10:11:06;14.90;99.90
81138;DHT22;70623;50.886;3.892;2023-11-19T10:13:36;14.20;99.90
81138;DHT22;70623;50.886;3.892;2023-11-19T10:16:12;13.80;99.90
81138;DHT22;70623;50.886;3.892;2023-11-19T10:18:46;13.60;99.90
81138;DHT22;70623;50.886;3.892;2023-11-19T10:21:15;13.70;99.90
81138;DHT22;70623;50.886;3.892;2023-11-19T10:23:50;13.70;99.90
81138;DHT22;70623;50.886;3.892;2023-11-19T10:26:20;13.50;99.90
81138;DHT22;70623;50.886;3.892;2023-11-19T10:28:47;13.40;99.90
81138;DHT22;70623;50.886;3.892;2023-11-19T10:31:21;13.40;99.90
81138;DHT22;70623;50.886;3.892;2023-11-19T10:33:51;13.80;99.90
81138;DHT22;70623;50.886;3.892;2023-11-19T10:36:17;14.20;99.90
81138;DHT22;70623;50.886;3.892;2023-11-19T10:38:55;14.60;99.90
81138;DHT22;70623;50.886;3.892;2023-11-19T10:41:29;14.30;99.90
81138;DHT22;70623;50.886;3.892;2023-11-19T10:43:59;14.20;99.90
81138;DHT22;70623;50.886;3.892;2023-11-19T10:46:41;14.60;99.90
81138;DHT22;70623;50.886;3.892;2023-11-19T10:49:09;14.10;99.90
81138;DHT22;70623;50.886;3.892;2023-11-19T10:51:35;13.90;99.90
81138;DHT22;70623;50.886;3.892;2023-11-19T10:54:05;13.50;99.90
81138;DHT22;70623;50.886;3.892;2023-11-19T10:56:32;13.50;99.90
81138;DHT22;70623;50.886;3.892;2023-11-19T10:58:59;13.50;99.90
81138;DHT22;70623;50.886;3.892;2023-11-19T11:01:29;13.70;99.90
81138;DHT22;70623;50.886;3.892;2023-11-19T11:03:59;14.30;99.90
81138;DHT22;70623;50.886;3.892;2023-11-19T11:06:27;14.80;99.90
81138;DHT22;70623;50.886;3.892;2023-11-19T11:08:53;15.10;99.90
81138;DHT22;70623;50.886;3.892;2023-11-19T11:11:19;14.80;99.90
81138;DHT22;70623;50.886;3.892;2023-11-19T11:13:52;14.90;99.90
81138;DHT22;70623;50.886;3.892;2023-11-19T11:16:19;15.50;99.90
81138;DHT22;70623;50.886;3.892;2023-11-19T11:18:47;16.00;99.90
81138;DHT22;70623;50.886;3.892;2023-11-19T11:21:24;16.80;99.90
81138;DHT22;70623;50.886;3.892;2023-11-19T11:29:33;16.40;99.90
81138;DHT22;70623;50.886;3.892;2023-11-19T11:32:51;15.90;99.90
81138;DHT22;70623;50.886;3.892;2023-11-19T11:37:44;15.20;99.90
81138;DHT22;70623;50.886;3.892;2023-11-19T11:40:16;14.90;99.90
81138;DHT22;70623;50.886;3.892;2023-11-19T11:42:44;15.00;99.90
81138;DHT22;70623;50.886;3.892;2023-11-19T11:45:14;15.10;99.90
81138;DHT22;70623;50.886;3.892;2023-11-19T11:50:10;16.40;99.90
81138;DHT22;70623;50.886;3.892;2023-11-19T11:57:56;14.50;99.90
81138;DHT22;70623;50.886;3.892;2023-11-19T12:00:32;14.30;99.90
81138;DHT22;70623;50.886;3.892;2023-11-19T12:03:02;14.10;99.90
81138;DHT22;70623;50.886;3.892;2023-11-19T12:05:28;13.70;99.90
81138;DHT22;70623;50.886;3.892;2023-11-19T12:08:01;13.40;99.90
81138;DHT22;70623;50.886;3.892;2023-11-19T12:10:45;13.40;99.90
81138;DHT22;70623;50.886;3.892;2023-11-19T12:13:14;13.40;99.90
81138;DHT22;70623;50.886;3.892;2023-11-19T12:18:31;13.30;99.90
81138;DHT22;70623;50.886;3.892;2023-11-19T12:20:58;13.10;99.90
81138;DHT22;70623;50.886;3.892;2023-11-19T12:23:33;13.00;99.90
81138;DHT22;70623;50.886;3.892;2023-11-19T12:25:59;13.00;99.90
81138;DHT22;70623;50.886;3.892;2023-11-19T12:28:25;13.10;99.90
81138;DHT22;70623;50.886;3.892;2023-11-19T12:31:09;13.50;99.90
81138;DHT22;70623;50.886;3.892;2023-11-19T12:33:35;13.90;99.90
81138;DHT22;70623;50.886;3.892;2023-11-19T12:36:01;14.10;99.90
81138;DHT22;70623;50.886;3.892;2023-11-19T12:38:30;14.00;99.90
81138;DHT22;70623;50.886;3.892;2023-11-19T12:41:07;13.90;99.90
81138;DHT22;70623;50.886;3.892;2023-11-19T12:43:33;13.70;99.90
81138;DHT22;70623;50.886;3.892;2023-11-19T12:46:20;13.80;99.90
81138;DHT22;70623;50.886;3.892;2023-11-19T12:48:50;13.80;99.90
81138;DHT22;70623;50.886;3.892;2023-11-19T12:51:16;13.60;99.90
81138;DHT22;70623;50.886;3.892;2023-11-19T12:53:52;13.70;99.90
81138;DHT22;70623;50.886;3.892;2023-11-19T12:56:23;13.50;99.90
81138;DHT22;70623;50.886;3.892;2023-11-19T12:58:49;13.40;99.90
81138;DHT22;70623;50.886;3.892;2023-11-19T13:01:17;13.20;99.90
81138;DHT22;70623;50.886;3.892;2023-11-19T13:03:44;13.10;99.90
81138;DHT22;70623;50.886;3.892;2023-11-19T13:06:14;13.20;99.90
81138;DHT22;70623;50.886;3.892;2023-11-19T13:08:50;13.30;99.90
81138;DHT22;70623;50.886;3.892;2023-11-19T13:11:34;13.30;99.90
81138;DHT22;70623;50.886;3.892;2023-11-19T13:14:05;13.20;99.90
81138;DHT22;70623;50.886;3.892;2023-11-19T13:16:31;13.10;99.90
81138;DHT22;70623;50.886;3.892;2023-11-19T13:18:57;13.10;99.90
81138;DHT22;70623;50.886;3.892;2023-11-19T13:21:24;13.30;99.90
81138;DHT22;70623;50.886;3.892;2023-11-19T13:23:50;13.50;99.90
81138;DHT22;70623;50.886;3.892;2023-11-19T13:26:16;13.50;99.90
81138;DHT22;70623;50.886;3.892;2023-11-19T13:28:41;13.50;99.90
81138;DHT22;70623;50.886;3.892;2023-11-19T13:31:07;13.30;99.90
81138;DHT22;70623;50.886;3.892;2023-11-19T13:33:33;13.20;99.90
81138;DHT22;70623;50.886;3.892;2023-11-19T13:35:59;13.30;99.90
81138;DHT22;70623;50.886;3.892;2023-11-19T13:38:33;13.50;99.90
81138;DHT22;70623;50.886;3.892;2023-11-19T13:41:01;13.60;99.90
81138;DHT22;70623;50.886;3.892;2023-11-19T13:43:30;13.70;99.90
81138;DHT22;70623;50.886;3.892;2023-11-19T13:45:58;13.80;99.90
81138;DHT22;70623;50.886;3.892;2023-11-19T13:48:24;13.80;99.90
81138;DHT22;70623;50.886;3.892;2023-11-19T13:50:50;13.60;99.90
81138;DHT22;70623;50.886;3.892;2023-11-19T13:53:16;13.30;99.90
81138;DHT22;70623;50.886;3.892;2023-11-19T13:55:44;13.20;99.90
81138;DHT22;70623;50.886;3.892;2023-11-19T13:58:10;13.10;99.90
81138;DHT22;70623;50.886;3.892;2023-11-19T14:00:36;12.90;99.90
81138;DHT22;70623;50.886;3.892;2023-11-19T14:03:02;12.70;99.90
81138;DHT22;70623;50.886;3.892;2023-11-19T14:05:28;12.70;99.90
81138;DHT22;70623;50.886;3.892;2023-11-19T14:07:54;12.70;99.90
81138;DHT22;70623;50.886;3.892;2023-11-19T14:10:24;12.70;99.90
81138;DHT22;70623;50.886;3.892;2023-11-19T14:12:49;12.70;99.90
81138;DHT22;70623;50.886;3.892;2023-11-19T14:15:16;12.60;99.90
81138;DHT22;70623;50.886;3.892;2023-11-19T14:17:45;12.70;99.90
81138;DHT22;70623;50.886;3.892;2023-11-19T14:20:10;12.70;99.90
81138;DHT22;70623;50.886;3.892;2023-11-19T14:22:44;12.70;99.90
81138;DHT22;70623;50.886;3.892;2023-11-19T14:25:11;12.90;99.90
81138;DHT22;70623;50.886;3.892;2023-11-19T14:27:40;12.90;99.90
81138;DHT22;70623;50.886;3.892;2023-11-19T14:30:08;13.00;99.90
81138;DHT22;70623;50.886;3.892;2023-11-19T14:32:35;13.00;99.90
81138;DHT22;70623;50.886;3.892;2023-11-19T14:35:01;13.00;99.90
81138;DHT22;70623;50.886;3.892;2023-11-19T14:37:29;13.00;99.90
81138;DHT22;70623;50.886;3.892;2023-11-19T14:39:59;13.00;99.90
81138;DHT22;70623;50.886;3.892;2023-11-19T14:42:25;13.00;99.90
81138;DHT22;70623;50.886;3.892;2023-11-19T14:44:54;12.90;99.90
81138;DHT22;70623;50.886;3.892;2023-11-19T14:47:23;12.80;99.90
81138;DHT22;70623;50.886;3.892;2023-11-19T14:49:49;12.80;99.90
81138;DHT22;70623;50.886;3.892;2023-11-19T14:52:15;12.80;99.90
81138;DHT22;70623;50.886;3.892;2023-11-19T14:54:43;12.70;99.90
81138;DHT22;70623;50.886;3.892;2023-11-19T14:57:08;12.60;99.90
81138;DHT22;70623;50.886;3.892;2023-11-19T14:59:37;12.60;99.90
81138;DHT22;70623;50.886;3.892;2023-11-19T15:02:03;12.70;99.90
81138;DHT22;70623;50.886;3.892;2023-11-19T15:04:29;12.70;99.90
81138;DHT22;70623;50.886;3.892;2023-11-19T15:06:59;12.70;99.90
81138;DHT22;70623;50.886;3.892;2023-11-19T15:09:25;12.80;99.90
81138;DHT22;70623;50.886;3.892;2023-11-19T15:11:53;12.80;99.90
81138;DHT22;70623;50.886;3.892;2023-11-19T15:14:19;12.90;99.90
81138;DHT22;70623;50.886;3.892;2023-11-19T15:16:46;12.90;99.90
81138;DHT22;70623;50.886;3.892;2023-11-19T15:19:12;12.90;99.90
81138;DHT22;70623;50.886;3.892;2023-11-19T15:21:38;12.90;99.90
81138;DHT22;70623;50.886;3.892;2023-11-19T15:24:04;12.90;99.90
81138;DHT22;70623;50.886;3.892;2023-11-19T15:26:36;13.00;99.90
81138;DHT22;70623;50.886;3.892;2023-11-19T15:29:03;12.90;99.90
81138;DHT22;70623;50.886;3.892;2023-11-19T15:31:29;12.80;99.90
81138;DHT22;70623;50.886;3.892;2023-11-19T15:33:55;12.50;99.90
81138;DHT22;70623;50.886;3.892;2023-11-19T15:36:21;12.10;99.90
81138;DHT22;70623;50.886;3.892;2023-11-19T15:38:47;12.00;99.90
81138;DHT22;70623;50.886;3.892;2023-11-19T15:41:13;12.00;99.90
81138;DHT22;70623;50.886;3.892;2023-11-19T15:43:39;12.00;99.90
81138;DHT22;70623;50.886;3.892;2023-11-19T15:46:08;12.00;99.90
81138;DHT22;70623;50.886;3.892;2023-11-19T15:48:39;12.00;99.90
81138;DHT22;70623;50.886;3.892;2023-11-19T15:51:05;12.00;99.90
81138;DHT22;70623;50.886;3.892;2023-11-19T15:53:31;12.00;99.90